Time;durP1;ratioP1;P1;durP2;ratioP2;P2;SDS_P1;SDS_P2;PMS_P1;PMS_P2;Temp;Humidity;BMP_temperature;BMP_pressure;BME280_temperature;BME280_humidity;BME280_pressure;Samples;Min_cycle;Max_cycle;Signal;HPM_P1;HPM_P2
2024/04/21 00:01:35;;;;;;;0.30;0.30;;;;;;;6.31;69.94;99397.66;5525978;26;20008;-65
2024/04/21 00:04:09;;;;;;;0.63;0.57;;;;;;;6.27;69.88;99388.34;5525761;26;20452;-64
2024/04/21 00:06:38;;;;;;;0.40;0.40;;;;;;;6.30;69.92;99390.06;5527580;25;20002;-66
2024/04/21 00:09:09;;;;;;;0.30;0.30;;;;;;;6.27;70.29;99387.50;5527552;25;20007;-66
2024/04/21 00:11:37;;;;;;;0.40;0.40;;;;;;;6.30;70.27;99388.38;5525828;26;19997;-66
2024/04/21 00:14:08;;;;;;;1.08;1.00;;;;;;;6.26;70.13;99391.72;5527353;26;20001;-67
2024/04/21 00:16:36;;;;;;;0.45;0.45;;;;;;;6.15;69.85;99378.06;5527490;25;20068;-65
2024/04/21 00:19:09;;;;;;;0.25;0.25;;;;;;;6.17;70.01;99394.13;5527356;26;20002;-65
2024/04/21 00:21:37;;;;;;;0.47;0.47;;;;;;;6.13;70.11;99379.75;5525609;26;20072;-65
2024/04/21 00:24:08;;;;;;;0.35;0.35;;;;;;;6.19;70.12;99384.84;5527161;25;20002;-65
2024/04/21 00:26:36;;;;;;;0.40;0.40;;;;;;;6.16;69.94;99384.84;5527536;26;19997;-65
2024/04/21 00:29:09;;;;;;;0.38;0.38;;;;;;;6.05;70.12;99368.66;5527118;25;20008;-65
2024/04/21 00:31:38;;;;;;;0.35;0.35;;;;;;;6.10;70.45;99392.34;5524313;26;20038;-64
2024/04/21 00:34:11;;;;;;;0.30;0.30;;;;;;;6.08;70.30;99381.38;5526903;25;20077;-65
2024/04/21 00:36:39;;;;;;;0.63;0.63;;;;;;;6.04;70.17;99384.69;5527099;25;20008;-67
2024/04/21 00:39:10;;;;;;;0.30;0.30;;;;;;;5.98;70.40;99384.59;5526917;25;20073;-65
2024/04/21 00:41:38;;;;;;;0.40;0.40;;;;;;;5.97;70.30;99393.88;5526890;26;20002;-65
2024/04/21 00:44:10;;;;;;;0.82;0.63;;;;;;;5.98;70.55;99389.66;5526805;25;20504;-67
2024/04/21 00:46:39;;;;;;;0.38;0.38;;;;;;;5.97;70.78;99398.13;5527078;26;20008;-66
2024/04/21 00:49:14;;;;;;;0.40;0.40;;;;;;;5.92;70.43;99389.59;5526815;25;19998;-67
2024/04/21 00:51:44;;;;;;;0.30;0.30;;;;;;;5.98;70.85;99404.88;5525396;26;20008;-64
2024/04/21 00:54:16;;;;;;;0.88;0.65;;;;;;;5.97;70.64;99404.00;5526497;26;20001;-67
2024/04/21 00:56:45;;;;;;;0.50;0.50;;;;;;;5.91;70.79;99403.09;5527035;26;19997;-65
2024/04/21 00:59:19;;;;;;;0.38;0.38;;;;;;;5.91;70.75;99409.00;5525164;26;20009;-65
2024/04/21 01:01:47;;;;;;;0.40;0.40;;;;;;;5.91;70.98;99403.09;5526839;25;19997;-65
2024/04/21 01:04:21;;;;;;;0.30;0.30;;;;;;;5.93;71.10;99401.41;5526691;25;19998;-65
2024/04/21 01:06:50;;;;;;;0.57;0.50;;;;;;;5.90;70.78;99401.41;5526531;26;20450;-67
2024/04/21 01:09:20;;;;;;;0.60;0.60;;;;;;;5.82;71.13;99382.69;5524711;26;20029;-65
2024/04/21 01:11:49;;;;;;;0.30;0.30;;;;;;;5.90;71.46;99393.81;5526308;25;20002;-66
2024/04/21 01:14:20;;;;;;;0.30;0.30;;;;;;;5.87;71.17;99401.34;5526415;25;20463;-67
2024/04/21 01:16:48;;;;;;;0.47;0.47;;;;;;;5.87;71.30;99398.81;5526117;25;20012;-67
2024/04/21 01:19:24;;;;;;;0.40;0.40;;;;;;;5.87;71.20;99396.28;5524403;26;20001;-67
2024/04/21 01:21:52;;;;;;;0.43;0.43;;;;;;;5.82;71.34;99392.81;5526804;25;20010;-65
2024/04/21 01:24:25;;;;;;;0.32;0.32;;;;;;;5.81;71.40;99393.63;5526399;25;19997;-65
2024/04/21 01:26:53;;;;;;;0.57;0.57;;;;;;;5.80;71.30;99389.41;5526297;25;19998;-65
2024/04/21 01:29:23;;;;;;;0.30;0.30;;;;;;;5.81;71.45;99396.16;5524182;26;20061;-65
2024/04/21 01:31:51;;;;;;;0.30;0.30;;;;;;;5.82;71.60;99387.75;5524336;26;20069;-64
2024/04/21 01:34:22;;;;;;;1.27;0.68;;;;;;;5.78;71.76;99379.25;5525928;25;20022;-66
2024/04/21 01:36:50;;;;;;;0.65;0.65;;;;;;;5.76;71.65;99387.69;5525958;26;20016;-65
2024/04/21 01:39:20;;;;;;;0.30;0.30;;;;;;;5.77;72.11;99385.16;5525923;25;20009;-64
2024/04/21 01:41:51;;;;;;;0.47;0.47;;;;;;;5.77;72.17;99376.72;5525853;25;19997;-69
2024/04/21 01:44:22;;;;;;;0.70;0.70;;;;;;;5.77;72.13;99379.25;5528116;26;19997;-66
2024/04/21 01:46:50;;;;;;;0.50;0.50;;;;;;;5.73;72.06;99383.44;5529748;25;20001;-65
2024/04/21 01:49:22;;;;;;;0.20;0.20;;;;;;;5.72;72.31;99375.78;5529586;25;19997;-67
2024/04/21 01:51:50;;;;;;;1.08;0.98;;;;;;;5.65;72.33;99379.06;5528249;26;20001;-65
2024/04/21 01:54:21;;;;;;;0.50;0.50;;;;;;;5.60;72.30;99375.63;5529347;25;20435;-66
2024/04/21 01:56:51;;;;;;;0.30;0.30;;;;;;;5.57;72.18;99380.63;5529749;25;19998;-64
2024/04/21 01:59:22;;;;;;;0.40;0.40;;;;;;;5.55;72.33;99378.09;5529885;25;20013;-66
2024/04/21 02:01:49;;;;;;;1.45;0.95;;;;;;;5.51;72.58;99370.44;5529114;26;20002;-64
2024/04/21 02:04:21;;;;;;;0.50;0.50;;;;;;;5.52;72.98;99377.22;5529621;26;20034;-64
2024/04/21 02:06:50;;;;;;;0.30;0.30;;;;;;;5.47;73.02;99366.16;5529242;26;20013;-65
2024/04/21 02:09:21;;;;;;;1.00;0.93;;;;;;;5.53;72.85;99378.91;5529233;25;20001;-66
2024/04/21 02:11:51;;;;;;;0.35;0.35;;;;;;;5.31;72.73;99350.75;5529447;25;19997;-65
2024/04/21 02:14:22;;;;;;;0.20;0.20;;;;;;;5.42;73.18;99374.53;5529225;26;20034;-64
2024/04/21 02:16:50;;;;;;;0.35;0.35;;;;;;;5.39;73.07;99377.03;5527317;26;20008;-66
2024/04/21 02:19:21;;;;;;;0.30;0.30;;;;;;;5.39;73.02;99371.97;5527452;26;20012;-66
2024/04/21 02:21:53;;;;;;;0.30;0.30;;;;;;;5.38;73.33;99370.25;5529167;25;20073;-65
2024/04/21 02:24:27;;;;;;;0.75;0.52;;;;;;;5.23;73.41;99349.78;5529051;25;19998;-67
2024/04/21 02:26:57;;;;;;;0.38;0.38;;;;;;;5.36;73.14;99371.91;5527346;26;20025;-65
2024/04/21 02:29:28;;;;;;;0.20;0.20;;;;;;;5.38;73.61;99375.31;5527110;26;20024;-65
2024/04/21 02:31:56;;;;;;;0.50;0.50;;;;;;;5.27;73.60;99353.22;5528940;25;20417;-65
2024/04/21 02:34:27;;;;;;;0.40;0.40;;;;;;;5.37;73.46;99373.59;5528934;26;20030;-65
2024/04/21 02:36:55;;;;;;;0.43;0.43;;;;;;;5.32;73.22;99372.72;5529273;25;20012;-64
2024/04/21 02:39:25;;;;;;;0.22;0.22;;;;;;;5.33;73.28;99376.91;5528822;26;20005;-65
2024/04/21 02:41:53;;;;;;;0.55;0.55;;;;;;;5.34;73.10;99372.72;5529082;25;19997;-65
2024/04/21 02:44:27;;;;;;;0.45;0.45;;;;;;;5.34;73.19;99373.56;5528735;25;20001;-65
2024/04/21 02:46:55;;;;;;;0.38;0.38;;;;;;;5.31;72.92;99371.00;5529141;26;20507;-65
2024/04/21 02:49:25;;;;;;;0.30;0.30;;;;;;;5.30;72.97;99376.88;5528728;25;19998;-64
2024/04/21 02:51:53;;;;;;;0.82;0.75;;;;;;;5.30;73.06;99366.75;5528759;25;20029;-67
2024/04/21 02:54:26;;;;;;;0.40;0.40;;;;;;;5.30;73.34;99374.34;5527836;26;20336;-66
2024/04/21 02:56:54;;;;;;;0.30;0.30;;;;;;;5.31;73.42;99378.59;5528799;26;20012;-65
2024/04/21 02:59:27;;;;;;;0.22;0.22;;;;;;;5.30;73.45;99376.88;5528606;25;20033;-65
2024/04/21 03:01:56;;;;;;;1.25;0.85;;;;;;;5.33;73.66;99376.91;5528622;25;20005;-65
2024/04/21 03:04:27;;;;;;;0.45;0.45;;;;;;;5.30;73.67;99371.81;5528887;25;19997;-66
2024/04/21 03:06:56;;;;;;;0.57;0.45;;;;;;;5.21;73.40;99366.63;5528745;25;20069;-65
2024/04/21 03:09:27;;;;;;;0.30;0.30;;;;;;;5.27;73.71;99370.94;5528338;25;20047;-65
2024/04/21 03:11:55;;;;;;;0.38;0.38;;;;;;;5.32;73.62;99375.25;5528361;25;20009;-67
2024/04/21 03:14:28;;;;;;;0.60;0.60;;;;;;;4.99;73.67;99313.16;5528321;26;19998;-64
2024/04/21 03:16:56;;;;;;;1.30;1.20;;;;;;;5.37;73.60;99363.47;5528849;26;20007;-64
2024/04/21 03:19:27;;;;;;;0.30;0.30;;;;;;;5.33;73.34;99366.81;5528309;26;20073;-65
2024/04/21 03:21:55;;;;;;;1.23;1.13;;;;;;;5.24;73.71;99358.22;5527984;26;20001;-68
2024/04/21 03:24:26;;;;;;;0.52;0.52;;;;;;;5.25;73.62;99353.22;5528585;25;20353;-65
2024/04/21 03:26:54;;;;;;;2.10;1.38;;;;;;;5.24;73.82;99354.03;5526524;26;20009;-65
2024/04/21 03:29:28;;;;;;;0.30;0.30;;;;;;;5.25;73.84;99365.84;5528033;25;20009;-65
2024/04/21 03:31:56;;;;;;;0.47;0.47;;;;;;;5.19;74.05;99362.34;5526379;26;20001;-65
2024/04/21 03:34:26;;;;;;;0.50;0.50;;;;;;;5.06;73.96;99351.19;5526229;26;20026;-64
2024/04/21 03:36:57;;;;;;;0.25;0.25;;;;;;;5.16;74.24;99363.16;5526337;26;20038;-64
2024/04/21 03:39:27;;;;;;;0.35;0.35;;;;;;;5.18;74.33;99364.03;5528352;26;19998;-67
2024/04/21 03:41:58;;;;;;;0.40;0.40;;;;;;;5.07;74.36;99359.63;5528082;25;20452;-66
2024/04/21 03:44:31;;;;;;;0.52;0.52;;;;;;;5.01;74.43;99352.84;5527692;25;19997;-65
2024/04/21 03:47:02;;;;;;;0.40;0.40;;;;;;;5.05;74.10;99353.72;5526082;26;20016;-66
2024/04/21 03:49:30;;;;;;;0.70;0.70;;;;;;;5.07;74.55;99367.22;5526214;26;20001;-64
2024/04/21 03:52:00;;;;;;;0.20;0.20;;;;;;;4.98;74.43;99357.81;5526059;26;20050;-65
2024/04/21 03:54:28;;;;;;;0.30;0.30;;;;;;;5.02;74.62;99367.16;5527881;26;20009;-64
2024/04/21 03:57:00;;;;;;;0.70;0.70;;;;;;;5.02;74.48;99364.63;5527735;25;20021;-66
2024/04/21 03:59:31;;;;;;;0.30;0.30;;;;;;;5.02;74.75;99364.63;5527826;25;20077;-65
2024/04/21 04:02:02;;;;;;;0.55;0.43;;;;;;;5.03;74.79;99357.91;5527355;26;20335;-65
2024/04/21 04:04:30;;;;;;;0.30;0.30;;;;;;;5.03;75.00;99356.22;5527543;26;19997;-67
2024/04/21 04:07:01;;;;;;;0.60;0.60;;;;;;;5.03;74.86;99360.44;5525560;26;20065;-64
2024/04/21 04:09:29;;;;;;;0.40;0.40;;;;;;;4.98;75.17;99352.78;5525868;26;20070;-65
2024/04/21 04:12:00;;;;;;;0.50;0.50;;;;;;;4.97;75.15;99351.06;5527880;25;20042;-64
2024/04/21 04:14:31;;;;;;;0.20;0.20;;;;;;;5.02;75.29;99359.56;5527537;26;20002;-65
2024/04/21 04:17:01;;;;;;;2.25;0.85;;;;;;;5.08;75.46;99353.75;5527521;25;20012;-64
2024/04/21 04:19:30;;;;;;;0.70;0.70;;;;;;;5.09;75.42;99366.44;5527487;25;20021;-63
2024/04/21 04:22:00;;;;;;;0.50;0.50;;;;;;;5.08;75.36;99363.88;5527086;25;20021;-65
2024/04/21 04:24:29;;;;;;;0.43;0.43;;;;;;;5.17;75.42;99380.06;5527427;26;20002;-65
2024/04/21 04:27:00;;;;;;;0.30;0.30;;;;;;;5.16;75.26;99362.34;5525210;26;20008;-65
2024/04/21 04:29:30;;;;;;;0.60;0.60;;;;;;;5.02;75.26;99349.47;5527663;25;20459;-66
2024/04/21 04:32:01;;;;;;;0.30;0.30;;;;;;;5.17;75.38;99369.06;5527320;25;20012;-66
2024/04/21 04:34:29;;;;;;;0.30;0.30;;;;;;;5.23;75.31;99390.25;5527419;25;20041;-65
2024/04/21 04:37:00;;;;;;;0.50;0.30;;;;;;;5.32;75.35;99389.56;5526978;26;20005;-65
2024/04/21 04:39:28;;;;;;;0.52;0.52;;;;;;;5.34;75.06;99383.69;5525696;26;20001;-65
2024/04/21 04:41:59;;;;;;;0.35;0.35;;;;;;;5.34;75.22;99383.69;5526886;25;19997;-66
2024/04/21 04:44:27;;;;;;;0.80;0.80;;;;;;;5.37;75.33;99388.78;5527353;25;20012;-66
2024/04/21 04:47:00;;;;;;;2.50;1.52;;;;;;;5.03;75.10;99330.94;5526742;26;20451;-66
2024/04/21 04:49:28;;;;;;;1.75;1.20;;;;;;;5.45;74.80;99391.44;5526959;25;20317;-65
2024/04/21 04:51:58;;;;;;;0.60;0.60;;;;;;;5.39;75.12;99382.09;5526787;25;20010;-65
2024/04/21 04:54:26;;;;;;;0.35;0.35;;;;;;;5.47;74.76;99399.06;5526409;25;20077;-64
2024/04/21 04:56:57;;;;;;;0.28;0.28;;;;;;;5.51;74.48;99400.81;5524936;26;19997;-64
2024/04/21 04:59:26;;;;;;;0.40;0.40;;;;;;;5.56;74.85;99410.19;5527047;25;20002;-64
2024/04/21 05:01:56;;;;;;;0.30;0.30;;;;;;;5.51;74.68;99396.59;5526689;26;20005;-67
2024/04/21 05:04:27;;;;;;;0.30;0.30;;;;;;;5.54;74.47;99401.72;5526546;26;20366;-65
2024/04/21 05:06:58;;;;;;;0.40;0.40;;;;;;;5.57;74.52;99396.66;5526748;25;20002;-65
2024/04/21 05:09:26;;;;;;;0.68;0.68;;;;;;;5.57;74.31;99399.19;5526757;25;20073;-65
2024/04/21 05:11:57;;;;;;;0.47;0.47;;;;;;;5.61;74.23;99398.44;5524911;26;20009;-64
2024/04/21 05:14:25;;;;;;;1.20;0.82;;;;;;;5.60;74.39;99400.94;5524502;26;20041;-64
2024/04/21 05:16:56;;;;;;;0.30;0.30;;;;;;;5.63;74.51;99393.38;5526294;26;20077;-66
2024/04/21 05:19:26;;;;;;;0.30;0.30;;;;;;;5.69;74.35;99401.06;5530146;25;20037;-66
2024/04/21 05:21:58;;;;;;;0.30;0.30;;;;;;;5.72;74.09;99406.16;5530211;26;20500;-65
2024/04/21 05:24:26;;;;;;;0.35;0.35;;;;;;;5.76;74.43;99411.28;5529794;26;20009;-65
2024/04/21 05:26:57;;;;;;;0.50;0.50;;;;;;;5.77;74.15;99410.47;5530196;25;20008;-66
2024/04/21 05:29:25;;;;;;;0.43;0.43;;;;;;;5.79;74.13;99413.88;5527998;26;19997;-64
2024/04/21 05:31:55;;;;;;;1.48;1.38;;;;;;;5.81;74.11;99413.88;5527948;26;20033;-65
2024/04/21 05:34:28;;;;;;;0.55;0.55;;;;;;;5.76;73.68;99403.69;5529629;26;20008;-64
2024/04/21 05:36:59;;;;;;;0.88;0.85;;;;;;;5.81;73.40;99413.88;5529843;25;19998;-65
2024/04/21 05:39:27;;;;;;;0.55;0.55;;;;;;;5.84;73.42;99416.47;5529725;25;20010;-66
2024/04/21 05:41:58;;;;;;;0.30;0.30;;;;;;;5.84;73.49;99421.53;5527976;26;20001;-67
2024/04/21 05:44:26;;;;;;;0.95;0.90;;;;;;;5.76;73.15;99413.00;5528054;26;20071;-65
2024/04/21 05:46:57;;;;;;;0.40;0.40;;;;;;;5.81;73.34;99416.41;5529640;25;20005;-66
2024/04/21 05:49:29;;;;;;;0.38;0.38;;;;;;;5.77;72.99;99414.69;5529635;26;20025;-65
2024/04/21 05:52:00;;;;;;;0.30;0.30;;;;;;;5.77;72.66;99419.75;5529626;25;19998;-66
2024/04/21 05:54:28;;;;;;;0.35;0.35;;;;;;;5.68;72.63;99414.56;5529851;25;20016;-64
2024/04/21 05:56:59;;;;;;;0.30;0.30;;;;;;;5.66;73.18;99417.09;5529360;26;20001;-66
2024/04/21 05:59:27;;;;;;;0.57;0.57;;;;;;;5.71;72.95;99417.97;5527319;26;20010;-65
2024/04/21 06:01:59;;;;;;;;;;;;;;;5.78;73.02;99416.41;5530142;25;20066;-65
2024/04/21 06:04:31;;;;;;;0.80;0.35;;;;;;;5.83;72.99;99413.06;5529345;26;19931;-65
2024/04/21 06:07:01;;;;;;;0.30;0.30;;;;;;;5.86;72.93;99424.97;5529033;26;20001;-66
2024/04/21 06:09:29;;;;;;;0.45;0.45;;;;;;;5.79;72.79;99407.94;5527423;26;20069;-64
2024/04/21 06:12:01;;;;;;;0.40;0.40;;;;;;;5.50;73.20;99359.44;5527351;26;20009;-65
2024/04/21 06:14:29;;;;;;;0.20;0.20;;;;;;;5.84;73.14;99401.28;5529209;25;20523;-65
2024/04/21 06:16:59;;;;;;;0.32;0.32;;;;;;;5.94;73.02;99400.59;5527501;26;19998;-66
2024/04/21 06:19:30;;;;;;;0.40;0.40;;;;;;;6.12;72.94;99408.41;5529164;25;20012;-67
2024/04/21 06:22:01;;;;;;;0.30;0.30;;;;;;;6.16;72.92;99410.19;5529455;26;20009;-67
2024/04/21 06:24:29;;;;;;;0.90;0.80;;;;;;;6.15;72.58;99403.41;5528872;25;19998;-63
2024/04/21 06:27:00;;;;;;;0.75;0.75;;;;;;;6.14;72.04;99404.25;5529155;25;20401;-68
2024/04/21 06:29:28;;;;;;;0.45;0.45;;;;;;;6.27;72.02;99413.69;5528406;25;19997;-68
2024/04/21 06:31:58;;;;;;;0.32;0.32;;;;;;;6.36;71.91;99407.91;5527299;26;20001;-66
2024/04/21 06:34:26;;;;;;;0.30;0.30;;;;;;;6.45;71.64;99419.00;5528979;26;20009;-65
2024/04/21 06:36:59;;;;;;;3.83;0.90;;;;;;;6.49;71.71;99415.63;5528974;25;19998;-65
2024/04/21 06:39:27;;;;;;;0.30;0.30;;;;;;;6.57;71.20;99398.84;5529293;25;20009;-66
2024/04/21 06:41:58;;;;;;;1.10;1.00;;;;;;;6.80;71.39;99408.34;5528593;26;20076;-67
2024/04/21 06:44:26;;;;;;;0.95;0.70;;;;;;;6.93;70.27;99397.50;5528863;26;20073;-68
2024/04/21 06:46:56;;;;;;;0.20;0.20;;;;;;;6.93;69.73;99402.56;5528715;25;20052;-67
2024/04/21 06:49:24;;;;;;;0.40;0.40;;;;;;;7.02;69.34;99397.56;5528907;25;20009;-66
2024/04/21 06:51:54;;;;;;;0.57;0.57;;;;;;;7.25;68.48;99385.91;5528656;26;20002;-66
2024/04/21 06:54:25;;;;;;;0.30;0.30;;;;;;;7.54;68.64;99389.50;5528612;26;20332;-66
2024/04/21 06:56:56;;;;;;;1.30;1.10;;;;;;;7.61;67.21;99391.25;5528264;25;20013;-66
2024/04/21 06:59:24;;;;;;;0.47;0.47;;;;;;;7.78;66.68;99392.19;5527372;26;20016;-65
2024/04/21 07:01:54;;;;;;;0.30;0.30;;;;;;;7.87;65.74;99389.69;5528483;25;19998;-67
2024/04/21 07:04:22;;;;;;;0.45;0.45;;;;;;;7.84;65.13;99389.72;5528444;25;20012;-66
2024/04/21 07:06:53;;;;;;;0.63;0.63;;;;;;;8.00;65.44;99386.41;5528407;25;20077;-65
2024/04/21 07:09:21;;;;;;;0.70;0.70;;;;;;;8.24;65.18;99384.78;5526609;26;19998;-66
2024/04/21 07:11:54;;;;;;;0.95;0.95;;;;;;;8.40;65.13;99372.16;5528250;26;20009;-65
2024/04/21 07:14:22;;;;;;;0.52;0.50;;;;;;;8.45;63.62;99379.78;5528431;25;20108;-67
2024/04/21 07:16:53;;;;;;;0.52;0.52;;;;;;;8.38;63.28;99383.16;5526674;26;20072;-67
2024/04/21 07:19:21;;;;;;;0.40;0.40;;;;;;;8.46;63.20;99376.41;5495680;26;19998;-67
2024/04/21 07:21:57;;;;;;;0.60;0.60;;;;;;;8.32;63.04;99381.47;5528275;25;20009;-67
2024/04/21 07:24:25;;;;;;;0.30;0.30;;;;;;;7.82;63.41;99344.81;5528323;25;20069;-70
2024/04/21 07:26:59;;;;;;;0.47;0.47;;;;;;;7.95;63.66;99388.06;5528244;26;20033;-65
2024/04/21 07:29:27;;;;;;;0.30;0.30;;;;;;;7.50;63.80;99352.25;5528237;25;20491;-68
2024/04/21 07:31:57;;;;;;;0.38;0.38;;;;;;;7.79;63.75;99401.53;5528068;26;20352;-70
2024/04/21 07:34:25;;;;;;;0.40;0.40;;;;;;;7.88;63.98;99388.88;5527982;26;20006;-69
2024/04/21 07:36:56;;;;;;;0.30;0.30;;;;;;;8.00;63.83;99395.69;5527938;25;20008;-67
2024/04/21 07:39:27;;;;;;;0.30;0.30;;;;;;;7.93;63.78;99399.91;5526404;26;20084;-68
2024/04/21 07:42:00;;;;;;;0.68;0.68;;;;;;;8.00;63.78;99396.56;5528070;26;20008;-68
2024/04/21 07:44:28;;;;;;;0.40;0.40;;;;;;;7.98;63.32;99395.72;5527802;25;20005;-68
2024/04/21 07:46:59;;;;;;;0.50;0.50;;;;;;;7.95;63.26;99392.28;5527943;26;20015;-68
2024/04/21 07:49:27;;;;;;;0.30;0.30;;;;;;;8.07;63.38;99384.72;5527907;26;20001;-67
2024/04/21 07:51:57;;;;;;;1.25;1.17;;;;;;;8.15;63.06;99400.00;5525653;26;20041;-68
2024/04/21 07:54:25;;;;;;;0.30;0.30;;;;;;;7.99;62.96;99394.84;5527947;26;20012;-66
2024/04/21 07:56:56;;;;;;;0.35;0.35;;;;;;;8.03;62.32;99390.63;5495153;26;20009;-65
2024/04/21 07:59:30;;;;;;;0.63;0.63;;;;;;;8.06;62.17;99383.88;5526141;26;19997;-67
2024/04/21 08:02:00;;;;;;;0.50;0.50;;;;;;;8.11;62.06;99384.72;5527854;26;20401;-68
2024/04/21 08:04:28;;;;;;;0.47;0.47;;;;;;;8.22;61.94;99387.34;5527750;25;20001;-67
2024/04/21 08:06:59;;;;;;;0.47;0.47;;;;;;;8.27;61.47;99387.38;5527630;26;20328;-65
2024/04/21 08:09:27;;;;;;;0.30;0.30;;;;;;;8.13;62.35;99372.88;5527564;25;20001;-67
2024/04/21 08:12:03;;;;;;;0.30;0.30;;;;;;;8.50;62.14;99383.22;5527465;26;20001;-66
2024/04/21 08:14:34;;;;;;;1.13;1.02;;;;;;;8.77;61.50;99383.28;5527410;26;20009;-67
2024/04/21 08:17:04;;;;;;;0.40;0.40;;;;;;;8.78;61.12;99359.53;5527752;25;20393;-66
2024/04/21 08:19:32;;;;;;;0.40;0.40;;;;;;;9.02;61.04;99374.81;5525595;26;19997;-65
2024/04/21 08:22:03;;;;;;;0.40;0.40;;;;;;;9.15;60.85;99368.88;5527072;26;20001;-67
2024/04/21 08:24:32;;;;;;;3.92;1.08;;;;;;;9.25;60.41;99378.22;5527430;26;20001;-69
2024/04/21 08:27:03;;;;;;;0.60;0.60;;;;;;;9.30;59.84;99381.63;5494698;26;19997;-67
2024/04/21 08:29:33;;;;;;;0.50;0.50;;;;;;;9.19;59.10;99388.38;5527209;26;20005;-66
2024/04/21 08:32:04;;;;;;;0.40;0.40;;;;;;;9.09;59.51;99381.63;5525346;26;19998;-69
2024/04/21 08:34:33;;;;;;;0.30;0.30;;;;;;;9.12;59.62;99386.69;5526968;26;20018;-67
2024/04/21 08:37:04;;;;;;;0.30;0.30;;;;;;;9.18;59.68;99390.94;5527129;25;20011;-68
2024/04/21 08:39:33;;;;;;;0.40;0.40;;;;;;;9.14;59.56;99392.63;5527306;25;20001;-67
2024/04/21 08:42:06;;;;;;;0.60;0.60;;;;;;;9.19;59.76;99390.94;5527005;25;19994;-67
2024/04/21 08:44:37;;;;;;;0.40;0.40;;;;;;;9.26;60.09;99392.63;5527337;26;20069;-65
2024/04/21 08:47:12;;;;;;;0.93;0.90;;;;;;;9.44;59.93;99387.53;5526964;25;20001;-65
2024/04/21 08:49:41;;;;;;;0.60;0.60;;;;;;;9.23;59.43;99354.47;5526978;25;19998;-67
2024/04/21 08:52:13;;;;;;;0.40;0.40;;;;;;;9.40;58.95;99383.31;5527510;26;20013;-69
2024/04/21 08:54:41;;;;;;;0.30;0.30;;;;;;;9.44;59.09;99374.81;5530450;25;20017;-68
2024/04/21 08:57:12;;;;;;;0.50;0.50;;;;;;;9.50;59.01;99388.38;5530370;26;20005;-67
2024/04/21 08:59:45;;;;;;;0.40;0.40;;;;;;;9.40;58.74;99362.09;5529330;26;20080;-69
2024/04/21 09:02:16;;;;;;;0.60;0.60;;;;;;;9.39;58.05;99391.78;5530224;26;20007;-69
2024/04/21 09:04:44;;;;;;;1.35;1.25;;;;;;;9.45;58.91;99386.69;5530222;26;20002;-68
2024/04/21 09:07:15;;;;;;;0.73;0.70;;;;;;;9.61;58.97;99384.13;5529903;25;19998;-67
2024/04/21 09:09:44;;;;;;;0.80;0.80;;;;;;;9.71;59.14;99378.16;5530215;26;20016;-69
2024/04/21 09:12:15;;;;;;;0.35;0.35;;;;;;;9.65;58.28;99373.06;5528671;26;19997;-67
2024/04/21 09:14:45;;;;;;;0.40;0.40;;;;;;;9.68;58.87;99383.25;5530247;25;20016;-67
2024/04/21 09:17:16;;;;;;;0.25;0.25;;;;;;;9.64;58.81;99359.50;5530368;25;20001;-67
2024/04/21 09:19:45;;;;;;;0.40;0.40;;;;;;;9.83;58.67;99383.22;5529881;25;20339;-67
2024/04/21 09:22:15;;;;;;;0.40;0.40;;;;;;;9.88;58.59;99386.63;5530073;25;20349;-68
2024/04/21 09:24:44;;;;;;;0.32;0.32;;;;;;;9.91;58.33;99384.06;5528318;26;20535;-67
2024/04/21 09:27:14;;;;;;;0.30;0.30;;;;;;;9.93;58.20;99390.81;5529992;25;20451;-68
2024/04/21 09:29:42;;;;;;;0.40;0.40;;;;;;;9.88;58.74;99392.56;5530099;26;20440;-67
2024/04/21 09:32:16;;;;;;;0.68;0.68;;;;;;;10.04;58.97;99384.00;5527928;26;20008;-68
2024/04/21 09:34:45;;;;;;;0.80;0.80;;;;;;;10.11;58.76;99369.53;5529740;25;20458;-67
2024/04/21 09:37:19;;;;;;;0.38;0.38;;;;;;;10.48;58.42;99367.69;5529662;26;19998;-68
2024/04/21 09:39:48;;;;;;;0.40;0.40;;;;;;;10.69;57.76;99376.06;5530563;25;20013;-68
2024/04/21 09:42:21;;;;;;;0.50;0.50;;;;;;;10.65;57.83;99374.38;5528059;26;20074;-66
2024/04/21 09:44:50;;;;;;;0.40;0.40;;;;;;;10.85;57.07;99366.59;5529364;26;20455;-68
2024/04/21 09:47:24;;;;;;;0.43;0.43;;;;;;;11.14;57.76;99372.34;5528519;25;20351;-67
2024/04/21 09:49:54;;;;;;;0.35;0.35;;;;;;;11.19;56.44;99373.16;5525299;26;20613;-69
2024/04/21 09:52:27;;;;;;;0.50;0.50;;;;;;;11.01;55.97;99352.03;5529447;26;20513;-69
2024/04/21 09:54:55;;;;;;;0.30;0.30;;;;;;;11.28;56.62;99367.09;5529206;25;20025;-69
2024/04/21 09:57:27;;;;;;;1.38;0.60;;;;;;;11.40;55.71;99361.88;5529546;25;20012;-68
2024/04/21 10:00:02;;;;;;;0.30;0.30;;;;;;;11.51;55.42;99357.53;5529350;26;19997;-67
2024/04/21 10:02:39;;;;;;;0.30;0.30;;;;;;;11.61;55.45;99359.16;5529564;25;20070;-68
2024/04/21 10:05:10;;;;;;;0.50;0.50;;;;;;;11.63;54.50;99359.13;5527693;26;20009;-70
2024/04/21 10:07:41;;;;;;;0.55;0.55;;;;;;;11.33;54.97;99360.25;5529336;25;20001;-68
2024/04/21 10:10:10;;;;;;;0.35;0.35;;;;;;;11.50;55.94;99358.38;5529639;25;20037;-68
2024/04/21 10:12:41;;;;;;;0.80;0.80;;;;;;;11.78;56.34;99349.59;5529112;26;20009;-69
2024/04/21 10:15:13;;;;;;;0.70;0.70;;;;;;;11.96;55.01;99359.63;5527571;26;20069;-69
2024/04/21 10:17:56;;;;;;;0.50;0.50;;;;;;;11.73;53.93;99340.31;5529465;25;20012;-69
2024/04/21 10:20:29;;;;;;;0.40;0.40;;;;;;;11.38;53.37;99276.75;5529041;25;20447;-69
2024/04/21 10:23:02;;;;;;;0.50;0.50;;;;;;;11.94;53.23;99335.78;5529153;25;20013;-66
2024/04/21 10:25:32;;;;;;;0.70;0.70;;;;;;;11.49;53.43;99341.38;5528973;25;20005;-68
2024/04/21 10:28:07;;;;;;;0.30;0.30;;;;;;;11.62;55.09;99348.03;5527407;26;20047;-69
2024/04/21 10:30:36;;;;;;;3.25;0.80;;;;;;;11.97;55.01;99338.28;5529010;25;20001;-67
2024/04/21 10:33:12;;;;;;;0.40;0.40;;;;;;;12.23;54.27;99337.13;5526592;26;19998;-69
2024/04/21 10:35:41;;;;;;;0.73;0.73;;;;;;;12.19;52.85;99322.72;5529283;25;20025;-71
2024/04/21 10:38:13;;;;;;;0.67;0.67;;;;;;;12.31;53.48;99325.09;5528830;25;20012;-69
2024/04/21 10:40:46;;;;;;;0.55;0.55;;;;;;;12.23;52.01;99321.78;5528976;25;20206;-68
2024/04/21 10:43:20;;;;;;;0.40;0.40;;;;;;;12.30;53.35;99320.84;5529103;26;19998;-68
2024/04/21 10:45:48;;;;;;;0.77;0.77;;;;;;;12.27;52.17;99318.31;5528840;25;19998;-68
2024/04/21 10:48:21;;;;;;;0.75;0.75;;;;;;;12.34;52.23;99325.03;5528599;26;20462;-69
2024/04/21 10:50:49;;;;;;;0.40;0.40;;;;;;;11.98;51.74;99316.97;5528706;26;20001;-69
2024/04/21 10:53:20;;;;;;;0.70;0.70;;;;;;;12.19;51.48;99320.97;5528368;26;20081;-64
2024/04/21 10:55:53;;;;;;;0.68;0.68;;;;;;;12.17;51.63;99319.28;5526987;26;19998;-68
2024/04/21 10:58:24;;;;;;;0.70;0.70;;;;;;;12.49;51.21;99319.72;5529087;25;20481;-70
2024/04/21 11:00:52;;;;;;;0.50;0.50;;;;;;;12.72;51.17;99327.91;5528668;25;19998;-68
2024/04/21 11:03:26;;;;;;;0.40;0.40;;;;;;;12.66;50.22;99318.63;5528513;26;20020;-69
2024/04/21 11:06:00;;;;;;;0.60;0.60;;;;;;;12.71;51.09;99308.31;5528261;26;20008;-70
2024/04/21 11:08:31;;;;;;;1.00;0.77;;;;;;;12.59;50.69;99321.28;5528146;26;20013;-68
2024/04/21 11:11:00;;;;;;;0.45;0.45;;;;;;;12.44;50.15;99322.34;5528168;25;20005;-70
2024/04/21 11:13:30;;;;;;;0.73;0.60;;;;;;;12.26;49.61;99307.22;5527627;25;20356;-67
2024/04/21 11:15:58;;;;;;;0.55;0.55;;;;;;;11.85;50.72;99315.41;5526150;26;20005;-69
2024/04/21 11:18:32;;;;;;;0.40;0.40;;;;;;;11.67;51.62;99319.88;5527895;26;20009;-68
2024/04/21 11:21:00;;;;;;;0.50;0.50;;;;;;;12.06;51.11;99314.34;5528205;25;20001;-67
2024/04/21 11:23:30;;;;;;;0.98;0.88;;;;;;;11.98;50.88;99305.91;5528283;26;20363;-69
2024/04/21 11:26:02;;;;;;;1.52;0.55;;;;;;;12.34;51.52;99314.81;5515670;25;20002;-70
2024/04/21 11:28:30;;;;;;;0.70;0.70;;;;;;;12.77;50.38;99310.75;5511815;26;20439;-67
2024/04/21 11:31:05;;;;;;;0.50;0.50;;;;;;;12.97;50.50;99318.97;5527059;25;20008;-67
2024/04/21 11:33:39;;;;;;;0.40;0.40;;;;;;;13.31;50.58;99309.88;5505131;26;20393;-68
2024/04/21 11:36:12;;;;;;;0.55;0.55;;;;;;;12.78;48.67;99312.47;5528342;25;20023;-68
2024/04/21 11:38:44;;;;;;;0.68;0.68;;;;;;;12.53;48.74;99300.88;5528496;25;20013;-68
2024/04/21 11:41:13;;;;;;;1.23;0.60;;;;;;;12.77;49.10;99311.59;5528258;25;20012;-68
2024/04/21 11:43:47;;;;;;;1.08;1.05;;;;;;;12.99;49.25;99290.75;5526150;26;20030;-67
2024/04/21 11:46:15;;;;;;;0.50;0.50;;;;;;;13.01;49.20;99307.81;5527956;25;19997;-69
2024/04/21 11:48:54;;;;;;;0.40;0.40;;;;;;;12.99;49.32;99281.38;5527776;26;19998;-68
2024/04/21 11:51:22;;;;;;;;;;;;;;;13.13;48.88;99305.06;5522729;26;20456;-68
2024/04/21 11:53:53;;;;;;;0.50;0.50;;;;;;;13.23;49.76;99311.72;5507494;25;19947;-70
2024/04/21 11:56:21;;;;;;;0.70;0.70;;;;;;;13.08;48.14;99296.59;5490398;26;20018;-70